createdAt,value
2023-02-08T00:01:26.208Z,103505.90
2023-02-08T00:03:54.572Z,103506.63
2023-02-08T00:06:23.217Z,103515.77
2023-02-08T00:08:52.013Z,103515.60
2023-02-08T00:11:20.817Z,103513.67
2023-02-08T00:13:49.089Z,103517.55
2023-02-08T00:16:18.569Z,103522.28
2023-02-08T00:18:47.004Z,103524.89
2023-02-08T00:21:17.670Z,103531.20
2023-02-08T00:24:03.515Z,103526.28
2023-02-08T00:26:31.682Z,103528.73
2023-02-08T00:28:59.968Z,103529.94
2023-02-08T00:31:28.840Z,103533.41
2023-02-08T00:33:57.144Z,103529.02
2023-02-08T00:36:27.168Z,103528.13
2023-02-08T00:38:55.751Z,103529.69
2023-02-08T00:41:24.037Z,103532.33
2023-02-08T00:43:53.037Z,103534.96
2023-02-08T00:46:21.978Z,103539.54
2023-02-08T00:48:51.438Z,103544.28
2023-02-08T00:51:20.001Z,103546.23
2023-02-08T00:53:51.076Z,103550.63
2023-02-08T00:56:19.352Z,103551.50
2023-02-08T00:58:47.843Z,103555.36
2023-02-08T01:01:16.418Z,103561.52
2023-02-08T01:03:45.124Z,103562.89
2023-02-08T01:06:16.793Z,103565.52
2023-02-08T01:08:46.989Z,103579.58
2023-02-08T01:11:22.361Z,103579.92
2023-02-08T01:13:55.839Z,103582.52
2023-02-08T01:16:28.577Z,103590.41
2023-02-08T01:18:59.371Z,103589.34
2023-02-08T01:21:30.724Z,103592.49
2023-02-08T01:24:00.338Z,103589.36
2023-02-08T01:26:32.187Z,103590.10
2023-02-08T01:29:01.000Z,103591.17
2023-02-08T01:31:35.666Z,103596.48
2023-02-08T01:34:05.418Z,103604.06
2023-02-08T01:36:34.954Z,103607.09
2023-02-08T01:39:05.188Z,103612.38
2023-02-08T01:41:36.833Z,103614.12
2023-02-08T01:44:13.936Z,103615.35
2023-02-08T01:46:45.153Z,103611.06
2023-02-08T01:49:19.902Z,103616.27
2023-02-08T01:52:02.201Z,103617.10
2023-02-08T01:54:35.563Z,103620.08
2023-02-08T01:57:04.360Z,103625.33
2023-02-08T01:59:45.905Z,103626.84
2023-02-08T02:02:17.735Z,103633.07
2023-02-08T02:04:48.278Z,103636.89
2023-02-08T02:07:19.541Z,103638.27
2023-02-08T02:09:58.360Z,103639.65
2023-02-08T02:12:32.017Z,103645.40
2023-02-08T02:15:01.739Z,103647.47
2023-02-08T02:17:30.963Z,103649.21
2023-02-08T02:20:02.124Z,103656.05
2023-02-08T02:22:52.632Z,103657.30
2023-02-08T02:25:45.857Z,103662.02
2023-02-08T02:28:32.660Z,103666.73
2023-02-08T02:31:22.712Z,103672.44
2023-02-08T02:33:53.886Z,103677.48
2023-02-08T02:36:37.314Z,103680.23
2023-02-08T02:39:24.016Z,103681.98
2023-02-08T02:42:21.876Z,103683.15
2023-02-08T02:45:15.330Z,103691.33
2023-02-08T02:47:53.440Z,103692.00
2023-02-08T02:50:41.570Z,103690.39
2023-02-08T02:53:22.051Z,103692.46
2023-02-08T02:55:58.504Z,103700.55
2023-02-08T02:58:29.169Z,103698.61
2023-02-08T03:00:59.746Z,103708.77
2023-02-08T03:03:31.950Z,103713.52
2023-02-08T03:06:43.925Z,103716.30
2023-02-08T03:09:31.048Z,103719.38
2023-02-08T03:12:16.516Z,103719.70
2023-02-08T03:14:57.074Z,103714.95
2023-02-08T03:17:54.625Z,103719.92
2023-02-08T03:20:46.240Z,103718.15
2023-02-08T03:23:21.931Z,103722.48
2023-02-08T03:26:05.320Z,103729.65
2023-02-08T03:28:46.288Z,103737.34
2023-02-08T03:31:42.604Z,103742.08
2023-02-08T03:34:24.208Z,103744.16
2023-02-08T03:37:16.640Z,103750.94
2023-02-08T03:39:48.905Z,103757.98
2023-02-08T03:42:25.137Z,103765.91
2023-02-08T03:45:17.485Z,103771.56
2023-02-08T03:47:49.673Z,103774.34
2023-02-08T03:50:21.028Z,103772.84
2023-02-08T03:52:52.479Z,103772.73
2023-02-08T03:55:26.254Z,103766.72
2023-02-08T03:58:34.485Z,103759.50
2023-02-08T04:01:29.885Z,103764.63
2023-02-08T04:04:01.428Z,103771.98
2023-02-08T04:06:30.119Z,103774.69
2023-02-08T04:08:58.537Z,103784.28
2023-02-08T04:11:27.647Z,103791.41
2023-02-08T04:13:56.298Z,103796.95
2023-02-08T04:16:24.583Z,103800.25
2023-02-08T04:18:52.963Z,103805.02
2023-02-08T04:21:21.756Z,103801.20
2023-02-08T04:23:50.244Z,103809.58
2023-02-08T04:26:18.630Z,103812.88
2023-02-08T04:28:47.117Z,103814.20
2023-02-08T04:31:15.489Z,103818.47
2023-02-08T04:33:43.903Z,103824.60
2023-02-08T04:36:12.272Z,103833.08
2023-02-08T04:38:40.555Z,103837.73
2023-02-08T04:41:08.942Z,103838.15
2023-02-08T04:43:37.440Z,103842.50
2023-02-08T04:46:05.848Z,103849.38
2023-02-08T04:48:34.206Z,103853.70
2023-02-08T04:51:02.885Z,103862.02
2023-02-08T04:53:49.180Z,103866.51
2023-02-08T04:56:17.574Z,103866.52
2023-02-08T04:58:46.878Z,103868.79
2023-02-08T05:01:16.728Z,103869.63
2023-02-08T05:03:45.280Z,103872.66
2023-02-08T05:06:13.977Z,103875.49
2023-02-08T05:08:42.664Z,103876.82
2023-02-08T05:11:11.572Z,103873.89
2023-02-08T05:13:39.840Z,103884.45
2023-02-08T05:16:08.158Z,103886.21
2023-02-08T05:18:36.604Z,103893.31
2023-02-08T05:21:06.218Z,103899.99
2023-02-08T05:23:35.155Z,103900.46
2023-02-08T05:26:08.684Z,103911.07
2023-02-08T05:28:37.961Z,103917.83
2023-02-08T05:31:32.484Z,103922.53
2023-02-08T05:34:00.984Z,103926.80
2023-02-08T05:36:29.984Z,103936.54
2023-02-08T05:38:58.365Z,103945.52
2023-02-08T05:41:26.861Z,103957.67
2023-02-08T05:43:55.030Z,103963.09
2023-02-08T05:46:23.227Z,103969.84
2023-02-08T05:48:51.902Z,103974.50
2023-02-08T05:51:21.311Z,103978.02
2023-02-08T05:53:49.910Z,103983.94
2023-02-08T05:56:18.184Z,103988.48
2023-02-08T05:58:46.856Z,103991.63
2023-02-08T06:01:15.257Z,103988.40
2023-02-08T06:03:43.629Z,103993.97
2023-02-08T06:06:12.229Z,103990.33
2023-02-08T06:08:41.226Z,103990.12
2023-02-08T06:11:09.622Z,103992.92
2023-02-08T06:13:39.188Z,103998.27
2023-02-08T06:16:07.894Z,104006.52
2023-02-08T06:18:36.103Z,104013.54
2023-02-08T06:21:04.583Z,104017.46
2023-02-08T06:23:33.893Z,104023.72
2023-02-08T06:26:02.597Z,104025.27
2023-02-08T06:28:30.988Z,104028.92
2023-02-08T06:30:59.759Z,104032.17
2023-02-08T06:33:27.945Z,104036.68
2023-02-08T06:35:56.230Z,104037.48
2023-02-08T06:38:24.607Z,104039.26
2023-02-08T06:40:53.194Z,104039.73
2023-02-08T06:43:21.373Z,104036.28
2023-02-08T06:45:49.781Z,104039.92
2023-02-08T06:48:18.152Z,104039.49
2023-02-08T06:50:46.835Z,104042.47
2023-02-08T06:53:15.091Z,104045.19
2023-02-08T06:55:43.294Z,104057.42
2023-02-08T06:58:11.578Z,104066.66
2023-02-08T07:00:40.127Z,104068.95
2023-02-08T07:03:10.249Z,104074.08
2023-02-08T07:05:39.246Z,104078.63
2023-02-08T07:08:08.415Z,104079.61
2023-02-08T07:10:40.531Z,104082.29
2023-02-08T07:13:08.844Z,104082.73
2023-02-08T07:15:37.437Z,104088.91
2023-02-08T07:18:05.921Z,104088.58
2023-02-08T07:20:34.103Z,104092.19
2023-02-08T07:23:02.585Z,104094.58
2023-02-08T07:25:30.868Z,104095.80
2023-02-08T07:27:59.258Z,104100.29
2023-02-08T07:30:27.972Z,104104.87
2023-02-08T07:32:56.330Z,104105.40
2023-02-08T07:35:24.509Z,104108.73
2023-02-08T07:37:52.895Z,104108.08
2023-02-08T07:40:21.074Z,104109.04
2023-02-08T07:42:49.194Z,104114.38
2023-02-08T07:45:23.984Z,104123.20
2023-02-08T07:47:52.274Z,104121.59
2023-02-08T07:50:21.066Z,104119.83
2023-02-08T07:52:49.351Z,104122.72
2023-02-08T07:55:17.936Z,104124.61
2023-02-08T07:57:48.300Z,104118.54
2023-02-08T08:00:18.467Z,104122.95
2023-02-08T08:02:46.819Z,104127.39
2023-02-08T08:05:15.064Z,104128.58
2023-02-08T08:07:43.438Z,104130.44
2023-02-08T08:10:11.625Z,104126.84
2023-02-08T08:12:40.108Z,104123.52
2023-02-08T08:15:09.535Z,104125.06
2023-02-08T08:17:39.536Z,104128.45
2023-02-08T08:20:10.647Z,104132.27
2023-02-08T08:22:38.965Z,104129.91
2023-02-08T08:25:07.760Z,104124.10
2023-02-08T08:27:36.045Z,104127.25
2023-02-08T08:30:07.918Z,104123.41
2023-02-08T08:32:38.019Z,104122.80
2023-02-08T08:35:07.957Z,104126.67
2023-02-08T08:37:37.109Z,104128.65
2023-02-08T08:40:06.972Z,104134.52
2023-02-08T08:42:42.310Z,104135.23
2023-02-08T08:45:11.665Z,104129.20
2023-02-08T08:47:39.801Z,104133.99
2023-02-08T08:50:09.358Z,104139.21
2023-02-08T08:52:37.691Z,104140.64
2023-02-08T08:55:07.010Z,104142.12
2023-02-08T08:57:35.384Z,104145.13
2023-02-08T09:00:04.670Z,104145.55
2023-02-08T09:02:33.281Z,104149.70
2023-02-08T09:05:04.428Z,104156.45
2023-02-08T09:07:33.941Z,104163.14
2023-02-08T09:10:02.711Z,104172.93
2023-02-08T09:12:31.004Z,104177.86
2023-02-08T09:14:59.388Z,104175.33
2023-02-08T09:17:27.577Z,104175.34
2023-02-08T09:19:55.858Z,104177.06
2023-02-08T09:22:24.948Z,104170.36
2023-02-08T09:24:54.103Z,104169.41
2023-02-08T09:27:22.541Z,104166.49
2023-02-08T09:29:51.026Z,104166.78
2023-02-08T09:32:21.466Z,104163.59
2023-02-08T09:34:49.651Z,104161.39
2023-02-08T09:37:18.336Z,104159.25
2023-02-08T09:39:46.728Z,104155.70
2023-02-08T09:42:41.002Z,104152.86
2023-02-08T09:45:12.137Z,104149.30
2023-02-08T09:48:21.465Z,104144.23
2023-02-08T09:50:56.699Z,104138.44
2023-02-08T09:53:34.502Z,104132.30
2023-02-08T09:56:07.461Z,104133.96
2023-02-08T09:58:39.885Z,104130.91
2023-02-08T10:01:18.803Z,104128.50
2023-02-08T10:03:48.822Z,104120.23
2023-02-08T10:06:20.163Z,104125.78
2023-02-08T10:08:51.313Z,104123.26
2023-02-08T10:11:35.568Z,104120.38
2023-02-08T10:14:07.139Z,104120.38
2023-02-08T10:16:59.906Z,104110.44
2023-02-08T10:19:34.170Z,104103.13
2023-02-08T10:22:31.317Z,104100.14
2023-02-08T10:25:25.790Z,104100.73
2023-02-08T10:28:06.193Z,104097.16
2023-02-08T10:30:53.785Z,104096.48
2023-02-08T10:33:31.368Z,104098.60
2023-02-08T10:35:59.858Z,104099.19
2023-02-08T10:38:45.768Z,104101.04
2023-02-08T10:41:27.278Z,104101.33
2023-02-08T10:44:13.615Z,104098.05
2023-02-08T10:46:47.325Z,104100.04
2023-02-08T10:49:35.259Z,104102.06
2023-02-08T10:52:06.187Z,104102.70
2023-02-08T10:54:35.398Z,104104.73
2023-02-08T10:57:12.946Z,104096.84
2023-02-08T10:59:52.328Z,104092.27
2023-02-08T11:02:29.202Z,104090.00
2023-02-08T11:05:02.191Z,104088.30
2023-02-08T11:07:33.147Z,104082.05
2023-02-08T11:10:25.576Z,104083.65
2023-02-08T11:12:57.919Z,104084.89
2023-02-08T11:15:57.230Z,104089.95
2023-02-08T11:18:32.854Z,104080.28
2023-02-08T11:21:04.627Z,104077.64
2023-02-08T11:23:36.106Z,104070.28
2023-02-08T11:26:35.158Z,104072.23
2023-02-08T11:29:06.263Z,104074.92
2023-02-08T11:31:36.833Z,104070.94
2023-02-08T11:34:09.449Z,104073.33
2023-02-08T11:36:48.991Z,104074.57
2023-02-08T11:39:24.537Z,104073.34
2023-02-08T11:41:58.035Z,104071.74
2023-02-08T11:44:31.336Z,104068.18
2023-02-08T11:47:02.968Z,104065.39
2023-02-08T11:49:51.968Z,104066.94
2023-02-08T11:52:25.607Z,104061.86
2023-02-08T11:54:55.858Z,104066.72
2023-02-08T11:57:28.043Z,104069.54
2023-02-08T12:00:22.453Z,104068.96
2023-02-08T12:02:51.954Z,104070.16
2023-02-08T12:05:35.158Z,104069.61
2023-02-08T12:08:30.874Z,104068.23
2023-02-08T12:11:14.202Z,104064.77
2023-02-08T12:13:51.482Z,104062.05
2023-02-08T12:16:36.306Z,104062.38
2023-02-08T12:19:10.478Z,104061.86
2023-02-08T12:21:45.252Z,104061.86
2023-02-08T12:24:32.093Z,104063.30
2023-02-08T12:27:27.541Z,104069.92
2023-02-08T12:29:59.256Z,104067.88
2023-02-08T12:32:46.268Z,104066.36
2023-02-08T12:35:43.550Z,104064.28
2023-02-08T12:38:37.979Z,104063.75
2023-02-08T12:41:12.303Z,104064.38
2023-02-08T12:44:02.688Z,104068.39
2023-02-08T12:46:30.999Z,104073.83
2023-02-08T12:49:15.111Z,104080.58
2023-02-08T12:52:11.130Z,104084.20
2023-02-08T12:54:53.121Z,104081.53
2023-02-08T12:57:24.983Z,104082.87
2023-02-08T13:00:29.384Z,104088.84
2023-02-08T13:03:31.947Z,104081.63
2023-02-08T13:06:05.972Z,104084.42
2023-02-08T13:08:45.389Z,104083.30
2023-02-08T13:11:45.614Z,104084.17
2023-02-08T13:14:20.036Z,104080.66
2023-02-08T13:16:53.337Z,104082.91
2023-02-08T13:19:28.890Z,104086.71
2023-02-08T13:21:59.172Z,104088.48
2023-02-08T13:24:41.525Z,104088.39
2023-02-08T13:27:23.197Z,104093.59
2023-02-08T13:29:53.087Z,104098.23
2023-02-08T13:32:30.355Z,104095.75
2023-02-08T13:35:27.339Z,104094.13
2023-02-08T13:38:07.576Z,104093.73
2023-02-08T13:40:37.295Z,104090.00
2023-02-08T13:43:05.819Z,104095.77
2023-02-08T13:45:42.436Z,104095.27
2023-02-08T13:48:43.002Z,104097.77
2023-02-08T13:51:50.878Z,104095.06
2023-02-08T13:54:19.159Z,104086.17
2023-02-08T13:56:55.532Z,104089.24
2023-02-08T13:59:25.826Z,104085.35
2023-02-08T14:02:12.257Z,104086.16
2023-02-08T14:04:45.631Z,104083.61
2023-02-08T14:07:50.276Z,104083.00
2023-02-08T14:10:26.828Z,104086.64
2023-02-08T14:13:04.836Z,104089.35
2023-02-08T14:15:37.619Z,104087.64
2023-02-08T14:18:22.998Z,104085.52
2023-02-08T14:21:04.894Z,104090.02
2023-02-08T14:23:38.321Z,104090.80
2023-02-08T14:26:18.596Z,104087.65
2023-02-08T14:28:48.926Z,104080.76
2023-02-08T14:31:18.944Z,104071.63
2023-02-08T14:33:56.647Z,104068.16
2023-02-08T14:36:33.360Z,104068.56
2023-02-08T14:39:27.878Z,104074.67
2023-02-08T14:42:01.402Z,104076.20
2023-02-08T14:44:38.834Z,104081.23
2023-02-08T14:47:35.562Z,104085.76
2023-02-08T14:50:24.629Z,104084.20
2023-02-08T14:53:11.737Z,104081.45
2023-02-08T14:56:00.274Z,104080.79
2023-02-08T14:58:32.384Z,104074.75
2023-02-08T15:01:06.389Z,104075.77
2023-02-08T15:03:35.841Z,104077.01
2023-02-08T15:06:16.838Z,104077.89
2023-02-08T15:08:53.807Z,104078.60
2023-02-08T15:11:30.526Z,104081.54
2023-02-08T15:14:02.848Z,104088.59
2023-02-08T15:16:40.518Z,104083.92
2023-02-08T15:19:18.874Z,104083.25
2023-02-08T15:21:47.054Z,104091.66
2023-02-08T15:24:20.162Z,104094.94
2023-02-08T15:26:50.172Z,104099.23
2023-02-08T15:29:27.961Z,104098.58
2023-02-08T15:32:01.695Z,104100.88
2023-02-08T15:34:30.057Z,104099.55
2023-02-08T15:36:58.338Z,104096.80
2023-02-08T15:39:34.505Z,104100.18
2023-02-08T15:42:03.003Z,104100.63
2023-02-08T15:44:35.025Z,104105.39
2023-02-08T15:47:06.210Z,104107.45
2023-02-08T15:49:41.757Z,104112.08
2023-02-08T15:52:18.526Z,104108.98
2023-02-08T15:54:47.468Z,104115.04
2023-02-08T15:57:27.823Z,104112.39
2023-02-08T15:59:57.402Z,104112.52
2023-02-08T16:02:31.980Z,104109.45
2023-02-08T16:05:02.758Z,104109.54
2023-02-08T16:07:41.029Z,104116.23
2023-02-08T16:10:23.843Z,104118.73
2023-02-08T16:12:59.151Z,104121.42
2023-02-08T16:15:39.786Z,104123.84
2023-02-08T16:18:32.632Z,104116.89
2023-02-08T16:21:03.596Z,104117.65
2023-02-08T16:23:34.316Z,104116.52
2023-02-08T16:26:20.403Z,104119.34
2023-02-08T16:28:56.886Z,104114.23
2023-02-08T16:31:29.613Z,104117.77
2023-02-08T16:34:01.833Z,104114.95
2023-02-08T16:36:44.439Z,104117.46
2023-02-08T16:39:16.399Z,104117.53
2023-02-08T16:42:00.964Z,104121.19
2023-02-08T16:44:36.843Z,104124.57
2023-02-08T16:47:38.967Z,104117.64
2023-02-08T16:50:10.008Z,104125.46
2023-02-08T16:52:39.011Z,104128.55
2023-02-08T16:55:11.504Z,104125.50
2023-02-08T16:57:52.215Z,104129.09
2023-02-08T17:00:29.348Z,104135.90
2023-02-08T17:02:58.100Z,104137.70
2023-02-08T17:05:30.375Z,104139.46
2023-02-08T17:07:59.713Z,104147.27
2023-02-08T17:10:31.191Z,104147.52
2023-02-08T17:13:18.636Z,104144.27
2023-02-08T17:15:50.805Z,104143.19
2023-02-08T17:18:20.870Z,104144.86
2023-02-08T17:20:49.171Z,104142.86
2023-02-08T17:23:17.560Z,104144.60
2023-02-08T17:25:46.399Z,104144.88
2023-02-08T17:28:18.412Z,104148.36
2023-02-08T17:30:48.318Z,104152.17
2023-02-08T17:33:20.037Z,104155.94
2023-02-08T17:35:52.948Z,104153.68
2023-02-08T17:38:21.701Z,104156.77
2023-02-08T17:40:50.570Z,104151.10
2023-02-08T17:43:19.362Z,104155.66
2023-02-08T17:45:48.028Z,104156.81
2023-02-08T17:48:16.447Z,104157.72
2023-02-08T17:50:51.109Z,104160.08
2023-02-08T17:53:20.169Z,104154.93
2023-02-08T17:55:48.329Z,104156.73
2023-02-08T17:58:18.102Z,104158.44
2023-02-08T18:00:46.751Z,104157.01
2023-02-08T18:03:17.398Z,104158.39
2023-02-08T18:05:45.866Z,104162.62
2023-02-08T18:08:14.460Z,104162.07
2023-02-08T18:10:42.860Z,104168.31
2023-02-08T18:13:11.842Z,104170.09
2023-02-08T18:15:44.797Z,104173.23
2023-02-08T18:18:30.620Z,104175.27
2023-02-08T18:20:59.008Z,104173.15
2023-02-08T18:23:28.196Z,104178.04
2023-02-08T18:26:07.813Z,104178.76
2023-02-08T18:28:36.342Z,104177.52
2023-02-08T18:31:09.194Z,104176.92
2023-02-08T18:33:38.208Z,104173.64
2023-02-08T18:36:11.564Z,104177.20
2023-02-08T18:38:46.540Z,104179.77
2023-02-08T18:41:21.477Z,104183.98
2023-02-08T18:43:50.458Z,104179.39
2023-02-08T18:46:21.208Z,104184.16
2023-02-08T18:48:51.100Z,104184.27
2023-02-08T18:51:21.048Z,104184.73
2023-02-08T18:53:53.128Z,104187.70
2023-02-08T18:56:24.366Z,104185.95
2023-02-08T18:58:54.706Z,104185.11
2023-02-08T19:01:24.841Z,104184.23
2023-02-08T19:03:53.953Z,104183.05
2023-02-08T19:06:25.837Z,104187.80
2023-02-08T19:08:56.214Z,104190.17
2023-02-08T19:11:30.037Z,104188.22
2023-02-08T19:14:01.976Z,104197.06
2023-02-08T19:16:31.690Z,104196.77
2023-02-08T19:19:01.421Z,104194.10
2023-02-08T19:21:30.951Z,104192.35
2023-02-08T19:24:00.827Z,104195.05
2023-02-08T19:26:36.734Z,104196.20
2023-02-08T19:29:06.845Z,104192.58
2023-02-08T19:31:35.772Z,104191.11
2023-02-08T19:34:05.230Z,104193.51
2023-02-08T19:36:37.282Z,104192.81
2023-02-08T19:39:08.042Z,104190.55
2023-02-08T19:41:39.281Z,104194.88
2023-02-08T19:44:11.265Z,104198.42
2023-02-08T19:46:40.106Z,104201.52
2023-02-08T19:49:08.746Z,104204.27
2023-02-08T19:51:37.648Z,104204.32
2023-02-08T19:54:10.246Z,104200.62
2023-02-08T19:56:38.711Z,104203.84
2023-02-08T19:59:15.388Z,104201.38
2023-02-08T20:01:44.837Z,104197.33
2023-02-08T20:04:14.367Z,104193.20
2023-02-08T20:06:45.252Z,104188.48
2023-02-08T20:09:15.823Z,104183.56
2023-02-08T20:11:56.324Z,104183.11
2023-02-08T20:14:30.428Z,104184.93
2023-02-08T20:16:59.962Z,104189.50
2023-02-08T20:19:29.334Z,104184.77
2023-02-08T20:21:57.554Z,104187.46
2023-02-08T20:24:25.937Z,104183.14
2023-02-08T20:26:54.527Z,104189.28
2023-02-08T20:29:23.327Z,104188.85
2023-02-08T20:31:58.279Z,104195.02
2023-02-08T20:34:26.953Z,104194.65
2023-02-08T20:37:06.958Z,104194.89
2023-02-08T20:39:37.155Z,104194.42
2023-02-08T20:42:06.533Z,104193.30
2023-02-08T20:44:35.015Z,104197.80
2023-02-08T20:47:03.328Z,104198.77
2023-02-08T20:49:32.597Z,104197.91
2023-02-08T20:52:01.492Z,104198.11
2023-02-08T20:54:29.981Z,104195.75
2023-02-08T20:56:58.585Z,104193.07
2023-02-08T20:59:27.482Z,104191.05
2023-02-08T21:01:56.301Z,104194.56
2023-02-08T21:04:25.170Z,104189.73
2023-02-08T21:06:53.760Z,104188.65
2023-02-08T21:09:22.036Z,104190.09
2023-02-08T21:11:51.417Z,104197.43
2023-02-08T21:14:23.348Z,104201.16
2023-02-08T21:16:56.545Z,104198.96
2023-02-08T21:19:27.142Z,104205.02
2023-02-08T21:21:58.298Z,104196.88
2023-02-08T21:24:27.706Z,104195.89
2023-02-08T21:26:56.924Z,104198.89
2023-02-08T21:29:25.560Z,104202.77
2023-02-08T21:31:54.752Z,104201.56
2023-02-08T21:34:23.373Z,104201.36
2023-02-08T21:36:51.658Z,104202.99
2023-02-08T21:39:23.066Z,104204.64
2023-02-08T21:41:52.863Z,104204.61
2023-02-08T21:44:21.320Z,104208.52
2023-02-08T21:46:49.593Z,104209.66
2023-02-08T21:49:36.917Z,104204.98
2023-02-08T21:52:24.445Z,104203.44
2023-02-08T21:54:53.833Z,104198.35
2023-02-08T21:57:28.872Z,104193.94
2023-02-08T21:59:59.603Z,104195.86
2023-02-08T22:02:30.383Z,104192.17
2023-02-08T22:05:21.777Z,104199.02
2023-02-08T22:07:54.605Z,104202.92
2023-02-08T22:10:25.468Z,104199.47
2023-02-08T22:12:55.304Z,104205.80
2023-02-08T22:15:26.773Z,104210.42
2023-02-08T22:17:57.601Z,104218.48
2023-02-08T22:20:26.996Z,104214.13
2023-02-08T22:22:55.763Z,104215.66
2023-02-08T22:25:24.397Z,104215.52
2023-02-08T22:27:52.716Z,104213.27
2023-02-08T22:30:22.418Z,104212.42
2023-02-08T22:32:51.900Z,104212.78
2023-02-08T22:35:20.283Z,104205.42
2023-02-08T22:37:48.471Z,104195.03
2023-02-08T22:40:16.965Z,104197.20
2023-02-08T22:42:45.439Z,104197.52
2023-02-08T22:45:13.826Z,104199.82
2023-02-08T22:47:42.019Z,104201.48
2023-02-08T22:50:10.600Z,104195.50
2023-02-08T22:52:39.384Z,104192.85
2023-02-08T22:55:07.775Z,104191.85
2023-02-08T22:57:36.361Z,104193.92
2023-02-08T23:00:07.725Z,104196.11
2023-02-08T23:02:36.347Z,104189.96
2023-02-08T23:05:05.622Z,104189.15
2023-02-08T23:07:34.305Z,104181.86
2023-02-08T23:10:04.224Z,104183.98
2023-02-08T23:12:32.708Z,104194.08
2023-02-08T23:15:01.300Z,104195.17
2023-02-08T23:17:29.474Z,104195.66
2023-02-08T23:19:57.650Z,104194.39
2023-02-08T23:22:26.037Z,104196.23
2023-02-08T23:24:55.545Z,104196.20
2023-02-08T23:27:23.726Z,104198.63
2023-02-08T23:29:52.525Z,104200.27
2023-02-08T23:32:20.798Z,104197.59
2023-02-08T23:34:49.398Z,104202.17
2023-02-08T23:37:17.695Z,104203.01
2023-02-08T23:39:46.259Z,104198.71
2023-02-08T23:42:25.619Z,104204.36
2023-02-08T23:44:59.805Z,104197.90
2023-02-08T23:47:29.880Z,104200.11
2023-02-08T23:49:58.630Z,104203.91
2023-02-08T23:52:27.016Z,104202.20
2023-02-08T23:54:55.198Z,104198.91
2023-02-08T23:57:23.606Z,104197.54
2023-02-08T23:59:52.517Z,104194.60
